sensor_id;sensor_type;location;lat;lon;timestamp;P1;durP1;ratioP1;P2;durP2;ratioP2
18881;SDS011;9573;50.948;11.600;2023-03-04T00:00:03;28.20;;;9.67;;
18881;SDS011;9573;50.948;11.600;2023-03-04T00:02:31;30.40;;;10.03;;
18881;SDS011;9573;50.948;11.600;2023-03-04T00:04:58;32.47;;;10.50;;
18881;SDS011;9573;50.948;11.600;2023-03-04T00:07:25;31.37;;;10.43;;
18881;SDS011;9573;50.948;11.600;2023-03-04T00:09:52;30.97;;;10.33;;
18881;SDS011;9573;50.948;11.600;2023-03-04T00:12:19;29.87;;;9.70;;
18881;SDS011;9573;50.948;11.600;2023-03-04T00:14:46;32.33;;;10.03;;
18881;SDS011;9573;50.948;11.600;2023-03-04T00:17:15;34.00;;;10.47;;
18881;SDS011;9573;50.948;11.600;2023-03-04T00:19:42;30.50;;;10.47;;
18881;SDS011;9573;50.948;11.600;2023-03-04T00:22:09;28.20;;;9.47;;
18881;SDS011;9573;50.948;11.600;2023-03-04T00:24:36;31.10;;;10.80;;
18881;SDS011;9573;50.948;11.600;2023-03-04T00:27:03;31.27;;;10.27;;
18881;SDS011;9573;50.948;11.600;2023-03-04T00:29:31;31.23;;;9.57;;
18881;SDS011;9573;50.948;11.600;2023-03-04T00:31:58;29.13;;;9.97;;
18881;SDS011;9573;50.948;11.600;2023-03-04T00:34:26;37.03;;;11.33;;
18881;SDS011;9573;50.948;11.600;2023-03-04T00:36:53;31.80;;;10.73;;
18881;SDS011;9573;50.948;11.600;2023-03-04T00:39:25;32.00;;;10.97;;
18881;SDS011;9573;50.948;11.600;2023-03-04T00:41:52;30.77;;;10.70;;
18881;SDS011;9573;50.948;11.600;2023-03-04T00:44:19;31.40;;;10.57;;
18881;SDS011;9573;50.948;11.600;2023-03-04T00:46:46;32.47;;;10.20;;
18881;SDS011;9573;50.948;11.600;2023-03-04T00:49:14;30.60;;;10.60;;
18881;SDS011;9573;50.948;11.600;2023-03-04T00:51:43;33.03;;;10.20;;
18881;SDS011;9573;50.948;11.600;2023-03-04T00:54:10;31.43;;;10.60;;
18881;SDS011;9573;50.948;11.600;2023-03-04T00:56:37;30.67;;;10.00;;
18881;SDS011;9573;50.948;11.600;2023-03-04T00:59:04;31.83;;;10.90;;
18881;SDS011;9573;50.948;11.600;2023-03-04T01:01:31;34.93;;;12.17;;
18881;SDS011;9573;50.948;11.600;2023-03-04T01:03:58;31.63;;;11.73;;
18881;SDS011;9573;50.948;11.600;2023-03-04T01:06:25;32.60;;;11.27;;
18881;SDS011;9573;50.948;11.600;2023-03-04T01:08:54;32.47;;;11.20;;
18881;SDS011;9573;50.948;11.600;2023-03-04T01:11:21;34.57;;;11.80;;
18881;SDS011;9573;50.948;11.600;2023-03-04T01:13:48;31.27;;;11.03;;
18881;SDS011;9573;50.948;11.600;2023-03-04T01:16:15;37.20;;;11.13;;
18881;SDS011;9573;50.948;11.600;2023-03-04T01:18:42;33.33;;;11.03;;
18881;SDS011;9573;50.948;11.600;2023-03-04T01:21:11;34.67;;;11.53;;
18881;SDS011;9573;50.948;11.600;2023-03-04T01:23:38;32.80;;;11.47;;
18881;SDS011;9573;50.948;11.600;2023-03-04T01:26:06;32.87;;;11.67;;
18881;SDS011;9573;50.948;11.600;2023-03-04T01:28:33;33.73;;;11.50;;
18881;SDS011;9573;50.948;11.600;2023-03-04T01:31:01;34.60;;;11.30;;
18881;SDS011;9573;50.948;11.600;2023-03-04T01:33:28;33.77;;;11.57;;
18881;SDS011;9573;50.948;11.600;2023-03-04T01:35:55;35.93;;;12.33;;
18881;SDS011;9573;50.948;11.600;2023-03-04T01:38:22;34.37;;;11.57;;
18881;SDS011;9573;50.948;11.600;2023-03-04T01:40:49;31.77;;;10.73;;
18881;SDS011;9573;50.948;11.600;2023-03-04T01:43:20;35.93;;;12.03;;
18881;SDS011;9573;50.948;11.600;2023-03-04T01:45:51;31.93;;;11.27;;
18881;SDS011;9573;50.948;11.600;2023-03-04T01:48:21;33.77;;;11.07;;
18881;SDS011;9573;50.948;11.600;2023-03-04T01:50:52;33.53;;;12.37;;
18881;SDS011;9573;50.948;11.600;2023-03-04T01:53:20;33.63;;;11.47;;
18881;SDS011;9573;50.948;11.600;2023-03-04T01:55:51;36.13;;;11.83;;
18881;SDS011;9573;50.948;11.600;2023-03-04T01:58:20;33.23;;;11.50;;
18881;SDS011;9573;50.948;11.600;2023-03-04T02:00:49;35.23;;;12.23;;
18881;SDS011;9573;50.948;11.600;2023-03-04T02:03:16;33.43;;;12.17;;
18881;SDS011;9573;50.948;11.600;2023-03-04T02:05:45;30.27;;;10.70;;
18881;SDS011;9573;50.948;11.600;2023-03-04T02:08:17;34.90;;;11.40;;
18881;SDS011;9573;50.948;11.600;2023-03-04T02:10:46;32.33;;;10.67;;
18881;SDS011;9573;50.948;11.600;2023-03-04T02:13:14;33.47;;;10.97;;
18881;SDS011;9573;50.948;11.600;2023-03-04T02:15:44;34.73;;;11.73;;
18881;SDS011;9573;50.948;11.600;2023-03-04T02:18:13;29.50;;;10.00;;
18881;SDS011;9573;50.948;11.600;2023-03-04T02:20:44;34.37;;;11.40;;
18881;SDS011;9573;50.948;11.600;2023-03-04T02:23:23;33.37;;;11.77;;
18881;SDS011;9573;50.948;11.600;2023-03-04T02:26:11;35.20;;;12.30;;
18881;SDS011;9573;50.948;11.600;2023-03-04T02:28:40;38.47;;;12.33;;
18881;SDS011;9573;50.948;11.600;2023-03-04T02:31:09;31.20;;;10.53;;
18881;SDS011;9573;50.948;11.600;2023-03-04T02:33:50;31.23;;;9.60;;
18881;SDS011;9573;50.948;11.600;2023-03-04T02:36:18;34.00;;;10.97;;
18881;SDS011;9573;50.948;11.600;2023-03-04T02:38:46;34.23;;;11.67;;
18881;SDS011;9573;50.948;11.600;2023-03-04T02:41:16;33.17;;;10.93;;
18881;SDS011;9573;50.948;11.600;2023-03-04T02:43:48;35.70;;;11.50;;
18881;SDS011;9573;50.948;11.600;2023-03-04T02:46:18;37.10;;;11.93;;
18881;SDS011;9573;50.948;11.600;2023-03-04T02:48:45;35.67;;;12.53;;
18881;SDS011;9573;50.948;11.600;2023-03-04T02:51:12;37.27;;;12.77;;
18881;SDS011;9573;50.948;11.600;2023-03-04T02:53:39;34.40;;;12.93;;
18881;SDS011;9573;50.948;11.600;2023-03-04T02:56:07;33.07;;;12.27;;
18881;SDS011;9573;50.948;11.600;2023-03-04T02:58:35;33.57;;;11.70;;
18881;SDS011;9573;50.948;11.600;2023-03-04T03:01:03;30.33;;;10.93;;
18881;SDS011;9573;50.948;11.600;2023-03-04T03:03:30;35.40;;;11.70;;
18881;SDS011;9573;50.948;11.600;2023-03-04T03:05:58;32.93;;;12.13;;
18881;SDS011;9573;50.948;11.600;2023-03-04T03:08:25;33.90;;;11.93;;
18881;SDS011;9573;50.948;11.600;2023-03-04T03:10:52;34.57;;;11.93;;
18881;SDS011;9573;50.948;11.600;2023-03-04T03:13:19;35.63;;;11.30;;
18881;SDS011;9573;50.948;11.600;2023-03-04T03:15:48;34.13;;;11.53;;
18881;SDS011;9573;50.948;11.600;2023-03-04T03:18:15;32.03;;;11.60;;
18881;SDS011;9573;50.948;11.600;2023-03-04T03:20:42;29.73;;;10.87;;
18881;SDS011;9573;50.948;11.600;2023-03-04T03:23:09;29.97;;;10.93;;
18881;SDS011;9573;50.948;11.600;2023-03-04T03:25:36;32.30;;;11.43;;
18881;SDS011;9573;50.948;11.600;2023-03-04T03:28:03;32.93;;;11.53;;
18881;SDS011;9573;50.948;11.600;2023-03-04T03:30:31;32.83;;;11.57;;
18881;SDS011;9573;50.948;11.600;2023-03-04T03:32:59;32.53;;;11.07;;
18881;SDS011;9573;50.948;11.600;2023-03-04T03:35:26;31.67;;;11.53;;
18881;SDS011;9573;50.948;11.600;2023-03-04T03:37:54;31.10;;;10.57;;
18881;SDS011;9573;50.948;11.600;2023-03-04T03:40:21;33.60;;;11.33;;
18881;SDS011;9573;50.948;11.600;2023-03-04T03:42:48;34.93;;;10.90;;
18881;SDS011;9573;50.948;11.600;2023-03-04T03:45:15;29.60;;;10.33;;
18881;SDS011;9573;50.948;11.600;2023-03-04T03:47:42;31.07;;;10.87;;
18881;SDS011;9573;50.948;11.600;2023-03-04T03:50:11;30.57;;;10.70;;
18881;SDS011;9573;50.948;11.600;2023-03-04T03:52:38;32.73;;;10.47;;
18881;SDS011;9573;50.948;11.600;2023-03-04T03:55:05;32.40;;;10.33;;
18881;SDS011;9573;50.948;11.600;2023-03-04T03:57:33;32.97;;;10.80;;
18881;SDS011;9573;50.948;11.600;2023-03-04T04:00:00;32.20;;;10.73;;
18881;SDS011;9573;50.948;11.600;2023-03-04T04:02:29;31.67;;;10.63;;
18881;SDS011;9573;50.948;11.600;2023-03-04T04:04:56;30.57;;;9.97;;
18881;SDS011;9573;50.948;11.600;2023-03-04T04:07:24;30.30;;;10.57;;
18881;SDS011;9573;50.948;11.600;2023-03-04T04:09:52;30.90;;;11.13;;
18881;SDS011;9573;50.948;11.600;2023-03-04T04:12:19;28.87;;;10.43;;
18881;SDS011;9573;50.948;11.600;2023-03-04T04:14:46;33.77;;;10.30;;
18881;SDS011;9573;50.948;11.600;2023-03-04T04:17:13;34.30;;;10.00;;
18881;SDS011;9573;50.948;11.600;2023-03-04T04:19:40;29.03;;;9.90;;
18881;SDS011;9573;50.948;11.600;2023-03-04T04:22:08;29.90;;;11.07;;
18881;SDS011;9573;50.948;11.600;2023-03-04T04:24:42;31.77;;;9.57;;
18881;SDS011;9573;50.948;11.600;2023-03-04T04:27:09;29.50;;;10.20;;
18881;SDS011;9573;50.948;11.600;2023-03-04T04:29:37;30.50;;;10.73;;
18881;SDS011;9573;50.948;11.600;2023-03-04T04:32:05;33.47;;;10.43;;
18881;SDS011;9573;50.948;11.600;2023-03-04T04:34:32;32.83;;;10.80;;
18881;SDS011;9573;50.948;11.600;2023-03-04T04:37:00;32.17;;;10.50;;
18881;SDS011;9573;50.948;11.600;2023-03-04T04:39:27;34.80;;;10.07;;
18881;SDS011;9573;50.948;11.600;2023-03-04T04:41:56;31.93;;;9.67;;
18881;SDS011;9573;50.948;11.600;2023-03-04T04:44:23;30.13;;;9.97;;
18881;SDS011;9573;50.948;11.600;2023-03-04T04:46:50;30.77;;;9.40;;
18881;SDS011;9573;50.948;11.600;2023-03-04T04:49:17;29.20;;;8.90;;
18881;SDS011;9573;50.948;11.600;2023-03-04T04:51:44;27.60;;;9.17;;
18881;SDS011;9573;50.948;11.600;2023-03-04T04:54:12;28.20;;;8.83;;
18881;SDS011;9573;50.948;11.600;2023-03-04T04:56:40;32.97;;;9.00;;
18881;SDS011;9573;50.948;11.600;2023-03-04T04:59:08;34.60;;;9.50;;
18881;SDS011;9573;50.948;11.600;2023-03-04T05:01:35;30.07;;;9.13;;
18881;SDS011;9573;50.948;11.600;2023-03-04T05:04:03;32.37;;;8.50;;
18881;SDS011;9573;50.948;11.600;2023-03-04T05:06:30;32.30;;;8.73;;
18881;SDS011;9573;50.948;11.600;2023-03-04T05:08:57;29.53;;;8.37;;
18881;SDS011;9573;50.948;11.600;2023-03-04T05:11:24;26.33;;;8.10;;
18881;SDS011;9573;50.948;11.600;2023-03-04T05:13:51;29.87;;;8.53;;
18881;SDS011;9573;50.948;11.600;2023-03-04T05:16:20;29.67;;;8.67;;
18881;SDS011;9573;50.948;11.600;2023-03-04T05:18:47;29.87;;;7.70;;
18881;SDS011;9573;50.948;11.600;2023-03-04T05:21:14;31.93;;;7.77;;
18881;SDS011;9573;50.948;11.600;2023-03-04T05:23:42;27.80;;;8.23;;
18881;SDS011;9573;50.948;11.600;2023-03-04T05:26:10;25.47;;;7.60;;
18881;SDS011;9573;50.948;11.600;2023-03-04T05:28:40;29.77;;;7.90;;
18881;SDS011;9573;50.948;11.600;2023-03-04T05:31:07;30.23;;;8.10;;
18881;SDS011;9573;50.948;11.600;2023-03-04T05:33:36;29.70;;;7.50;;
18881;SDS011;9573;50.948;11.600;2023-03-04T05:36:04;32.10;;;8.07;;
18881;SDS011;9573;50.948;11.600;2023-03-04T05:38:33;30.23;;;7.77;;
18881;SDS011;9573;50.948;11.600;2023-03-04T05:41:01;31.77;;;7.63;;
18881;SDS011;9573;50.948;11.600;2023-03-04T05:43:30;30.57;;;7.23;;
18881;SDS011;9573;50.948;11.600;2023-03-04T05:46:00;26.07;;;7.70;;
18881;SDS011;9573;50.948;11.600;2023-03-04T05:48:28;26.27;;;7.83;;
18881;SDS011;9573;50.948;11.600;2023-03-04T05:50:57;32.43;;;7.50;;
18881;SDS011;9573;50.948;11.600;2023-03-04T05:53:26;30.30;;;7.57;;
18881;SDS011;9573;50.948;11.600;2023-03-04T05:55:54;33.90;;;7.00;;
18881;SDS011;9573;50.948;11.600;2023-03-04T05:58:23;31.27;;;7.67;;
18881;SDS011;9573;50.948;11.600;2023-03-04T06:00:50;35.40;;;7.07;;
18881;SDS011;9573;50.948;11.600;2023-03-04T06:03:19;30.10;;;7.40;;
18881;SDS011;9573;50.948;11.600;2023-03-04T06:05:48;32.13;;;7.40;;
18881;SDS011;9573;50.948;11.600;2023-03-04T06:08:16;28.83;;;7.10;;
18881;SDS011;9573;50.948;11.600;2023-03-04T06:10:43;32.50;;;7.70;;
18881;SDS011;9573;50.948;11.600;2023-03-04T06:13:10;33.07;;;8.03;;
18881;SDS011;9573;50.948;11.600;2023-03-04T06:15:39;30.90;;;8.57;;
18881;SDS011;9573;50.948;11.600;2023-03-04T06:18:06;33.67;;;7.70;;
18881;SDS011;9573;50.948;11.600;2023-03-04T06:20:33;32.33;;;7.60;;
18881;SDS011;9573;50.948;11.600;2023-03-04T06:23:01;32.10;;;7.37;;
18881;SDS011;9573;50.948;11.600;2023-03-04T06:25:30;25.77;;;6.90;;
18881;SDS011;9573;50.948;11.600;2023-03-04T06:27:57;30.17;;;7.53;;
18881;SDS011;9573;50.948;11.600;2023-03-04T06:30:24;28.97;;;7.10;;
18881;SDS011;9573;50.948;11.600;2023-03-04T06:32:51;32.47;;;7.13;;
18881;SDS011;9573;50.948;11.600;2023-03-04T06:35:18;21.77;;;6.40;;
18881;SDS011;9573;50.948;11.600;2023-03-04T06:37:46;28.87;;;6.50;;
18881;SDS011;9573;50.948;11.600;2023-03-04T06:40:13;25.77;;;6.27;;
18881;SDS011;9573;50.948;11.600;2023-03-04T06:42:41;26.23;;;6.90;;
18881;SDS011;9573;50.948;11.600;2023-03-04T06:45:09;29.30;;;7.10;;
18881;SDS011;9573;50.948;11.600;2023-03-04T06:47:43;27.03;;;6.50;;
18881;SDS011;9573;50.948;11.600;2023-03-04T06:50:11;26.93;;;6.87;;
18881;SDS011;9573;50.948;11.600;2023-03-04T06:52:39;28.37;;;6.50;;
18881;SDS011;9573;50.948;11.600;2023-03-04T06:55:06;24.50;;;6.20;;
18881;SDS011;9573;50.948;11.600;2023-03-04T06:57:35;28.73;;;7.00;;
18881;SDS011;9573;50.948;11.600;2023-03-04T07:00:04;29.97;;;6.27;;
18881;SDS011;9573;50.948;11.600;2023-03-04T07:02:33;28.10;;;6.47;;
18881;SDS011;9573;50.948;11.600;2023-03-04T07:05:00;30.10;;;6.30;;
18881;SDS011;9573;50.948;11.600;2023-03-04T07:07:28;29.07;;;6.10;;
18881;SDS011;9573;50.948;11.600;2023-03-04T07:09:55;20.93;;;5.43;;
18881;SDS011;9573;50.948;11.600;2023-03-04T07:12:22;30.40;;;6.10;;
18881;SDS011;9573;50.948;11.600;2023-03-04T07:14:49;25.73;;;6.17;;
18881;SDS011;9573;50.948;11.600;2023-03-04T07:17:20;21.00;;;5.30;;
18881;SDS011;9573;50.948;11.600;2023-03-04T07:19:47;26.03;;;6.23;;
18881;SDS011;9573;50.948;11.600;2023-03-04T07:22:14;29.43;;;5.77;;
18881;SDS011;9573;50.948;11.600;2023-03-04T07:24:42;27.17;;;6.00;;
18881;SDS011;9573;50.948;11.600;2023-03-04T07:27:15;25.70;;;5.93;;
18881;SDS011;9573;50.948;11.600;2023-03-04T07:29:42;26.37;;;5.70;;
18881;SDS011;9573;50.948;11.600;2023-03-04T07:32:10;24.53;;;5.70;;
18881;SDS011;9573;50.948;11.600;2023-03-04T07:34:38;23.67;;;5.60;;
18881;SDS011;9573;50.948;11.600;2023-03-04T07:37:06;30.33;;;5.23;;
18881;SDS011;9573;50.948;11.600;2023-03-04T07:39:33;28.73;;;6.03;;
18881;SDS011;9573;50.948;11.600;2023-03-04T07:42:00;30.80;;;5.90;;
18881;SDS011;9573;50.948;11.600;2023-03-04T07:44:27;19.90;;;5.10;;
18881;SDS011;9573;50.948;11.600;2023-03-04T07:46:54;23.17;;;5.70;;
18881;SDS011;9573;50.948;11.600;2023-03-04T07:49:22;21.37;;;5.10;;
18881;SDS011;9573;50.948;11.600;2023-03-04T07:51:50;23.67;;;5.13;;
18881;SDS011;9573;50.948;11.600;2023-03-04T07:54:17;23.93;;;4.57;;
18881;SDS011;9573;50.948;11.600;2023-03-04T07:56:45;24.20;;;5.23;;
18881;SDS011;9573;50.948;11.600;2023-03-04T07:59:12;20.37;;;4.53;;
18881;SDS011;9573;50.948;11.600;2023-03-04T08:01:39;21.87;;;4.80;;
18881;SDS011;9573;50.948;11.600;2023-03-04T08:04:06;22.07;;;4.53;;
18881;SDS011;9573;50.948;11.600;2023-03-04T08:06:33;21.10;;;4.40;;
18881;SDS011;9573;50.948;11.600;2023-03-04T08:09:06;21.00;;;4.23;;
18881;SDS011;9573;50.948;11.600;2023-03-04T08:11:37;25.03;;;4.90;;
18881;SDS011;9573;50.948;11.600;2023-03-04T08:14:05;18.67;;;4.20;;
18881;SDS011;9573;50.948;11.600;2023-03-04T08:16:33;21.77;;;3.90;;
18881;SDS011;9573;50.948;11.600;2023-03-04T08:19:00;18.20;;;4.13;;
18881;SDS011;9573;50.948;11.600;2023-03-04T08:21:31;20.67;;;4.33;;
18881;SDS011;9573;50.948;11.600;2023-03-04T08:24:00;27.83;;;4.43;;
18881;SDS011;9573;50.948;11.600;2023-03-04T08:26:34;18.63;;;4.27;;
18881;SDS011;9573;50.948;11.600;2023-03-04T08:29:05;23.23;;;4.03;;
18881;SDS011;9573;50.948;11.600;2023-03-04T08:31:34;18.80;;;4.47;;
18881;SDS011;9573;50.948;11.600;2023-03-04T08:34:02;20.80;;;4.30;;
18881;SDS011;9573;50.948;11.600;2023-03-04T08:36:29;20.43;;;4.23;;
18881;SDS011;9573;50.948;11.600;2023-03-04T08:38:56;19.80;;;4.17;;
18881;SDS011;9573;50.948;11.600;2023-03-04T08:41:23;10.37;;;3.33;;
18881;SDS011;9573;50.948;11.600;2023-03-04T08:43:52;23.63;;;4.27;;
18881;SDS011;9573;50.948;11.600;2023-03-04T08:46:20;18.10;;;4.20;;
18881;SDS011;9573;50.948;11.600;2023-03-04T08:48:47;14.83;;;3.97;;
18881;SDS011;9573;50.948;11.600;2023-03-04T08:51:14;18.23;;;4.33;;
18881;SDS011;9573;50.948;11.600;2023-03-04T08:53:41;20.03;;;3.87;;
18881;SDS011;9573;50.948;11.600;2023-03-04T08:56:10;18.50;;;4.00;;
18881;SDS011;9573;50.948;11.600;2023-03-04T08:58:38;18.27;;;3.93;;
18881;SDS011;9573;50.948;11.600;2023-03-04T09:01:08;21.43;;;4.00;;
18881;SDS011;9573;50.948;11.600;2023-03-04T09:03:36;18.03;;;4.00;;
18881;SDS011;9573;50.948;11.600;2023-03-04T09:06:05;13.67;;;3.40;;
18881;SDS011;9573;50.948;11.600;2023-03-04T09:08:33;20.53;;;3.80;;
18881;SDS011;9573;50.948;11.600;2023-03-04T09:11:00;18.40;;;3.93;;
18881;SDS011;9573;50.948;11.600;2023-03-04T09:13:29;12.93;;;2.93;;
18881;SDS011;9573;50.948;11.600;2023-03-04T09:15:57;14.13;;;3.30;;
18881;SDS011;9573;50.948;11.600;2023-03-04T09:18:29;16.57;;;3.10;;
18881;SDS011;9573;50.948;11.600;2023-03-04T09:20:56;12.93;;;3.40;;
18881;SDS011;9573;50.948;11.600;2023-03-04T09:23:23;10.60;;;2.47;;
18881;SDS011;9573;50.948;11.600;2023-03-04T09:25:50;13.73;;;3.00;;
18881;SDS011;9573;50.948;11.600;2023-03-04T09:28:17;15.93;;;3.00;;
18881;SDS011;9573;50.948;11.600;2023-03-04T09:30:44;10.77;;;2.80;;
18881;SDS011;9573;50.948;11.600;2023-03-04T09:33:12;9.30;;;2.73;;
18881;SDS011;9573;50.948;11.600;2023-03-04T09:35:41;12.63;;;3.17;;
18881;SDS011;9573;50.948;11.600;2023-03-04T09:38:08;12.03;;;2.80;;
18881;SDS011;9573;50.948;11.600;2023-03-04T09:40:37;17.83;;;2.97;;
18881;SDS011;9573;50.948;11.600;2023-03-04T09:43:10;12.67;;;2.77;;
18881;SDS011;9573;50.948;11.600;2023-03-04T09:45:46;12.00;;;3.63;;
18881;SDS011;9573;50.948;11.600;2023-03-04T09:48:17;18.27;;;4.20;;
18881;SDS011;9573;50.948;11.600;2023-03-04T09:50:54;11.73;;;2.80;;
18881;SDS011;9573;50.948;11.600;2023-03-04T09:53:37;19.43;;;3.37;;
18881;SDS011;9573;50.948;11.600;2023-03-04T09:56:13;12.47;;;2.63;;
18881;SDS011;9573;50.948;11.600;2023-03-04T09:58:43;11.37;;;2.60;;
18881;SDS011;9573;50.948;11.600;2023-03-04T10:01:23;12.37;;;2.80;;
18881;SDS011;9573;50.948;11.600;2023-03-04T10:03:57;12.40;;;2.40;;
18881;SDS011;9573;50.948;11.600;2023-03-04T10:06:31;11.80;;;2.47;;
18881;SDS011;9573;50.948;11.600;2023-03-04T10:09:00;14.83;;;2.80;;
18881;SDS011;9573;50.948;11.600;2023-03-04T10:11:33;13.00;;;2.70;;
18881;SDS011;9573;50.948;11.600;2023-03-04T10:14:10;6.17;;;2.60;;
18881;SDS011;9573;50.948;11.600;2023-03-04T10:16:56;9.70;;;2.60;;
18881;SDS011;9573;50.948;11.600;2023-03-04T10:19:36;4.97;;;1.73;;
18881;SDS011;9573;50.948;11.600;2023-03-04T10:22:21;9.60;;;2.40;;
18881;SDS011;9573;50.948;11.600;2023-03-04T10:24:55;11.70;;;2.40;;
18881;SDS011;9573;50.948;11.600;2023-03-04T10:27:24;9.87;;;2.20;;
18881;SDS011;9573;50.948;11.600;2023-03-04T10:29:55;12.50;;;2.33;;
18881;SDS011;9573;50.948;11.600;2023-03-04T10:32:25;10.63;;;2.33;;
18881;SDS011;9573;50.948;11.600;2023-03-04T10:34:52;6.57;;;2.33;;
18881;SDS011;9573;50.948;11.600;2023-03-04T10:37:20;12.43;;;2.73;;
18881;SDS011;9573;50.948;11.600;2023-03-04T10:39:48;11.07;;;2.43;;
18881;SDS011;9573;50.948;11.600;2023-03-04T10:42:23;5.10;;;1.03;;
18881;SDS011;9573;50.948;11.600;2023-03-04T10:45:01;7.87;;;2.07;;
18881;SDS011;9573;50.948;11.600;2023-03-04T10:47:29;6.93;;;1.60;;
18881;SDS011;9573;50.948;11.600;2023-03-04T10:49:59;12.23;;;2.10;;
18881;SDS011;9573;50.948;11.600;2023-03-04T10:52:33;10.13;;;2.13;;
18881;SDS011;9573;50.948;11.600;2023-03-04T10:55:04;5.83;;;2.00;;
18881;SDS011;9573;50.948;11.600;2023-03-04T10:57:40;9.93;;;2.50;;
18881;SDS011;9573;50.948;11.600;2023-03-04T11:00:23;13.07;;;2.60;;
18881;SDS011;9573;50.948;11.600;2023-03-04T11:03:13;8.63;;;2.40;;
18881;SDS011;9573;50.948;11.600;2023-03-04T11:06:02;6.33;;;2.17;;
18881;SDS011;9573;50.948;11.600;2023-03-04T11:08:47;13.47;;;2.13;;
18881;SDS011;9573;50.948;11.600;2023-03-04T11:11:20;8.07;;;2.33;;
18881;SDS011;9573;50.948;11.600;2023-03-04T11:13:51;8.33;;;1.93;;
18881;SDS011;9573;50.948;11.600;2023-03-04T11:16:24;5.57;;;2.00;;
18881;SDS011;9573;50.948;11.600;2023-03-04T11:18:54;9.43;;;2.13;;
18881;SDS011;9573;50.948;11.600;2023-03-04T11:21:28;10.70;;;2.20;;
18881;SDS011;9573;50.948;11.600;2023-03-04T11:24:03;7.43;;;2.67;;
18881;SDS011;9573;50.948;11.600;2023-03-04T11:26:38;9.30;;;2.33;;
18881;SDS011;9573;50.948;11.600;2023-03-04T11:29:11;9.10;;;2.20;;
18881;SDS011;9573;50.948;11.600;2023-03-04T11:31:44;9.63;;;2.40;;
18881;SDS011;9573;50.948;11.600;2023-03-04T11:34:18;10.77;;;2.33;;
18881;SDS011;9573;50.948;11.600;2023-03-04T11:36:56;4.90;;;1.73;;
18881;SDS011;9573;50.948;11.600;2023-03-04T11:39:30;10.13;;;2.23;;
18881;SDS011;9573;50.948;11.600;2023-03-04T11:42:04;15.07;;;2.67;;
18881;SDS011;9573;50.948;11.600;2023-03-04T11:44:51;5.70;;;2.20;;
18881;SDS011;9573;50.948;11.600;2023-03-04T11:47:32;6.27;;;2.30;;
18881;SDS011;9573;50.948;11.600;2023-03-04T11:50:16;5.10;;;2.20;;
18881;SDS011;9573;50.948;11.600;2023-03-04T11:53:07;12.30;;;2.70;;
18881;SDS011;9573;50.948;11.600;2023-03-04T11:56:01;6.53;;;2.20;;
18881;SDS011;9573;50.948;11.600;2023-03-04T12:02:12;9.03;;;2.20;;
18881;SDS011;9573;50.948;11.600;2023-03-04T12:04:53;7.67;;;2.27;;
18881;SDS011;9573;50.948;11.600;2023-03-04T12:07:48;7.10;;;2.10;;
18881;SDS011;9573;50.948;11.600;2023-03-04T12:10:28;9.67;;;2.50;;
18881;SDS011;9573;50.948;11.600;2023-03-04T12:13:14;8.33;;;2.23;;
18881;SDS011;9573;50.948;11.600;2023-03-04T12:16:00;6.80;;;2.43;;
18881;SDS011;9573;50.948;11.600;2023-03-04T12:18:46;7.40;;;2.10;;
18881;SDS011;9573;50.948;11.600;2023-03-04T12:21:32;6.67;;;2.03;;
18881;SDS011;9573;50.948;11.600;2023-03-04T12:24:32;6.97;;;1.90;;
18881;SDS011;9573;50.948;11.600;2023-03-04T12:27:26;6.83;;;2.03;;
18881;SDS011;9573;50.948;11.600;2023-03-04T12:30:05;11.30;;;2.40;;
18881;SDS011;9573;50.948;11.600;2023-03-04T12:32:49;5.93;;;2.27;;
18881;SDS011;9573;50.948;11.600;2023-03-04T12:35:27;6.43;;;2.00;;
18881;SDS011;9573;50.948;11.600;2023-03-04T12:38:05;5.73;;;1.70;;
18881;SDS011;9573;50.948;11.600;2023-03-04T12:40:52;10.23;;;2.47;;
18881;SDS011;9573;50.948;11.600;2023-03-04T12:43:29;5.77;;;2.10;;
18881;SDS011;9573;50.948;11.600;2023-03-04T12:46:16;9.43;;;2.10;;
18881;SDS011;9573;50.948;11.600;2023-03-04T12:48:57;4.63;;;1.63;;
18881;SDS011;9573;50.948;11.600;2023-03-04T12:51:45;5.87;;;2.20;;
18881;SDS011;9573;50.948;11.600;2023-03-04T12:54:22;6.97;;;2.30;;
18881;SDS011;9573;50.948;11.600;2023-03-04T12:56:57;6.73;;;2.20;;
18881;SDS011;9573;50.948;11.600;2023-03-04T12:59:28;8.27;;;2.20;;
18881;SDS011;9573;50.948;11.600;2023-03-04T13:02:08;9.97;;;2.40;;
18881;SDS011;9573;50.948;11.600;2023-03-04T13:04:58;4.23;;;2.40;;
18881;SDS011;9573;50.948;11.600;2023-03-04T13:07:45;6.87;;;2.10;;
18881;SDS011;9573;50.948;11.600;2023-03-04T13:10:21;4.40;;;2.13;;
18881;SDS011;9573;50.948;11.600;2023-03-04T13:12:50;5.20;;;2.20;;
18881;SDS011;9573;50.948;11.600;2023-03-04T13:15:28;10.00;;;2.03;;
18881;SDS011;9573;50.948;11.600;2023-03-04T13:18:00;6.60;;;2.20;;
18881;SDS011;9573;50.948;11.600;2023-03-04T13:21:04;10.73;;;2.10;;
18881;SDS011;9573;50.948;11.600;2023-03-04T13:23:43;10.90;;;2.87;;
18881;SDS011;9573;50.948;11.600;2023-03-04T13:26:15;5.83;;;1.37;;
18881;SDS011;9573;50.948;11.600;2023-03-04T13:28:50;5.43;;;2.27;;
18881;SDS011;9573;50.948;11.600;2023-03-04T13:31:21;9.97;;;2.27;;
18881;SDS011;9573;50.948;11.600;2023-03-04T13:33:59;3.53;;;1.07;;
18881;SDS011;9573;50.948;11.600;2023-03-04T13:36:33;7.37;;;2.30;;
18881;SDS011;9573;50.948;11.600;2023-03-04T13:39:30;6.67;;;2.57;;
18881;SDS011;9573;50.948;11.600;2023-03-04T13:41:59;2.30;;;0.97;;
18881;SDS011;9573;50.948;11.600;2023-03-04T13:47:29;5.97;;;2.10;;
18881;SDS011;9573;50.948;11.600;2023-03-04T13:50:22;6.03;;;2.13;;
18881;SDS011;9573;50.948;11.600;2023-03-04T14:01:55;4.67;;;2.50;;
18881;SDS011;9573;50.948;11.600;2023-03-04T14:04:31;8.83;;;2.40;;
18881;SDS011;9573;50.948;11.600;2023-03-04T14:07:03;4.47;;;2.20;;
18881;SDS011;9573;50.948;11.600;2023-03-04T14:09:53;4.67;;;2.07;;
18881;SDS011;9573;50.948;11.600;2023-03-04T14:12:23;4.87;;;2.30;;
18881;SDS011;9573;50.948;11.600;2023-03-04T14:14:53;6.30;;;2.40;;
18881;SDS011;9573;50.948;11.600;2023-03-04T14:17:24;7.03;;;2.50;;
18881;SDS011;9573;50.948;11.600;2023-03-04T14:19:55;6.53;;;2.40;;
18881;SDS011;9573;50.948;11.600;2023-03-04T14:22:25;8.43;;;2.70;;
18881;SDS011;9573;50.948;11.600;2023-03-04T14:24:58;5.97;;;2.53;;
18881;SDS011;9573;50.948;11.600;2023-03-04T14:27:29;5.17;;;2.03;;
18881;SDS011;9573;50.948;11.600;2023-03-04T14:30:00;6.33;;;2.47;;
18881;SDS011;9573;50.948;11.600;2023-03-04T14:32:29;7.90;;;2.37;;
18881;SDS011;9573;50.948;11.600;2023-03-04T14:34:58;3.03;;;2.10;;
18881;SDS011;9573;50.948;11.600;2023-03-04T14:37:32;5.43;;;2.20;;
18881;SDS011;9573;50.948;11.600;2023-03-04T14:40:09;3.90;;;2.50;;
18881;SDS011;9573;50.948;11.600;2023-03-04T14:42:45;7.37;;;2.13;;
18881;SDS011;9573;50.948;11.600;2023-03-04T14:45:14;4.60;;;2.37;;
18881;SDS011;9573;50.948;11.600;2023-03-04T14:47:43;4.43;;;2.43;;
18881;SDS011;9573;50.948;11.600;2023-03-04T14:50:13;5.53;;;2.23;;
18881;SDS011;9573;50.948;11.600;2023-03-04T14:52:44;6.17;;;2.33;;
18881;SDS011;9573;50.948;11.600;2023-03-04T14:55:17;4.20;;;2.20;;
18881;SDS011;9573;50.948;11.600;2023-03-04T14:57:50;4.93;;;2.33;;
18881;SDS011;9573;50.948;11.600;2023-03-04T15:00:27;5.70;;;2.40;;
18881;SDS011;9573;50.948;11.600;2023-03-04T15:02:58;5.63;;;2.40;;
18881;SDS011;9573;50.948;11.600;2023-03-04T15:05:27;9.07;;;2.40;;
18881;SDS011;9573;50.948;11.600;2023-03-04T15:07:58;6.83;;;2.63;;
18881;SDS011;9573;50.948;11.600;2023-03-04T15:10:29;8.40;;;2.27;;